Time;durP1;ratioP1;P1;durP2;ratioP2;P2;SDS_P1;SDS_P2;PMS_P1;PMS_P2;Temp;Humidity;BMP_temperature;BMP_pressure;BME280_temperature;BME280_humidity;BME280_pressure;Samples;Min_cycle;Max_cycle;Signal;HPM_P1;HPM_P2
2023/06/24 00:00:03;;;;;;;2.67;2.47;;;21.70;90.70;;;;;;5110882;28;20212;-65
2023/06/24 00:02:37;;;;;;;2.10;1.90;;;21.80;90.80;;;;;;5110843;28;20204;-65
2023/06/24 00:05:05;;;;;;;2.63;2.50;;;21.70;90.80;;;;;;5111413;28;20196;-66
2023/06/24 00:07:36;;;;;;;3.83;2.92;;;21.70;90.80;;;;;;5102704;28;20200;-66
2023/06/24 00:10:04;;;;;;;2.55;2.38;;;21.70;90.90;;;;;;5111343;28;20555;-65
2023/06/24 00:12:32;;;;;;;2.28;2.17;;;21.80;91.00;;;;;;5109570;28;20203;-65
2023/06/24 00:15:00;;;;;;;2.50;2.40;;;21.70;91.00;;;;;;5109663;28;20253;-66
2023/06/24 00:17:29;;;;;;;2.45;2.05;;;21.70;91.00;;;;;;5100920;28;20559;-65
2023/06/24 00:19:58;;;;;;;2.50;2.40;;;21.70;91.10;;;;;;5104248;28;20701;-65
2023/06/24 00:22:26;;;;;;;2.30;2.20;;;21.70;91.10;;;;;;5108524;28;20274;-65
2023/06/24 00:24:53;;;;;;;2.78;2.20;;;21.70;91.20;;;;;;5096411;28;20200;-65
2023/06/24 00:27:21;;;;;;;2.45;2.25;;;21.70;91.30;;;;;;5104341;28;20578;-66
2023/06/24 00:29:48;;;;;;;2.22;2.03;;;21.70;91.30;;;;;;5096453;28;20232;-66
2023/06/24 00:32:17;;;;;;;3.58;2.17;;;21.70;91.40;;;;;;5109886;28;20196;-65
2023/06/24 00:34:45;;;;;;;2.85;2.30;;;21.60;91.70;;;;;;5110938;28;20283;-65
2023/06/24 00:37:14;;;;;;;2.30;2.10;;;21.60;91.50;;;;;;5088757;28;20219;-65
2023/06/24 00:39:46;;;;;;;3.67;2.25;;;21.60;91.50;;;;;;5091741;28;20208;-65
2023/06/24 00:42:14;;;;;;;2.30;2.10;;;21.60;91.60;;;;;;5089467;28;20210;-65
2023/06/24 00:44:41;;;;;;;2.13;1.92;;;21.50;91.60;;;;;;5107456;28;20198;-65
2023/06/24 00:47:09;;;;;;;2.30;2.20;;;21.50;91.70;;;;;;5098967;28;20326;-65
2023/06/24 00:49:37;;;;;;;2.53;2.33;;;21.50;91.70;;;;;;5092447;28;20246;-66
2023/06/24 00:52:05;;;;;;;2.28;2.08;;;21.50;91.80;;;;;;5107940;28;20672;-66
2023/06/24 00:54:35;;;;;;;2.15;2.05;;;21.60;91.80;;;;;;5095993;28;20659;-65
2023/06/24 00:57:02;;;;;;;2.00;1.90;;;21.60;91.90;;;;;;5108525;28;20187;-65
2023/06/24 00:59:31;;;;;;;2.58;1.90;;;21.60;91.90;;;;;;5109363;28;20204;-65
2023/06/24 01:02:01;;;;;;;2.03;1.92;;;21.60;92.00;;;;;;5111508;28;20264;-65
2023/06/24 01:04:29;;;;;;;2.92;2.25;;;21.50;92.00;;;;;;5115013;28;20298;-65
2023/06/24 01:06:58;;;;;;;1.92;1.83;;;21.50;92.10;;;;;;5112499;28;20192;-65
2023/06/24 01:09:26;;;;;;;2.20;2.10;;;21.50;92.10;;;;;;5114925;28;20208;-66
2023/06/24 01:11:55;;;;;;;3.33;2.60;;;21.50;92.50;;;;;;5092951;28;20285;-66
2023/06/24 01:14:23;;;;;;;3.30;2.35;;;21.50;92.30;;;;;;5107992;28;20195;-66
2023/06/24 01:16:58;;;;;;;3.20;1.90;;;21.50;92.40;;;;;;5111193;28;20546;-66
2023/06/24 01:19:42;;;;;;;2.47;2.17;;;21.50;92.40;;;;;;5104002;28;20549;-66
2023/06/24 01:22:25;;;;;;;2.05;1.95;;;21.50;92.40;;;;;;5106029;28;20681;-66
2023/06/24 01:25:09;;;;;;;2.03;1.90;;;21.50;92.50;;;;;;5108088;28;20213;-65
2023/06/24 01:28:03;;;;;;;2.10;1.88;;;21.50;92.50;;;;;;5109857;28;20188;-65
2023/06/24 01:31:00;;;;;;;2.05;1.95;;;21.50;92.60;;;;;;5112804;28;20245;-65
2023/06/24 01:33:44;;;;;;;2.15;1.90;;;21.50;92.60;;;;;;5104331;28;20202;-65
2023/06/24 01:36:15;;;;;;;1.73;1.52;;;21.50;92.70;;;;;;5099803;28;20212;-66
2023/06/24 01:38:48;;;;;;;2.10;2.00;;;21.50;92.80;;;;;;5092737;28;20287;-65
2023/06/24 01:41:22;;;;;;;1.88;1.77;;;21.50;92.80;;;;;;5107152;28;20713;-64
2023/06/24 01:43:52;;;;;;;2.00;1.80;;;21.50;92.90;;;;;;5112972;28;20249;-65
2023/06/24 01:46:22;;;;;;;3.10;2.00;;;21.50;92.90;;;;;;5114005;28;20204;-65
2023/06/24 01:48:53;;;;;;;1.88;1.77;;;21.50;93.00;;;;;;5113752;28;20198;-66
2023/06/24 01:51:24;;;;;;;1.80;1.70;;;21.50;93.00;;;;;;5094323;28;20555;-66
2023/06/24 01:54:01;;;;;;;1.90;1.80;;;21.40;93.00;;;;;;5103475;28;20207;-64
2023/06/24 01:56:30;;;;;;;1.50;1.40;;;21.40;93.00;;;;;;5113467;28;20195;-65
2023/06/24 01:59:01;;;;;;;1.88;1.77;;;21.40;93.10;;;;;;5108864;28;20196;-66
2023/06/24 02:01:30;;;;;;;1.90;1.80;;;21.40;93.10;;;;;;5103242;28;20307;-65
2023/06/24 02:04:00;;;;;;;1.90;1.80;;;21.40;93.20;;;;;;5112092;28;20655;-64
2023/06/24 02:06:31;;;;;;;2.20;2.00;;;21.40;93.20;;;;;;5111955;28;20244;-66
2023/06/24 02:09:03;;;;;;;2.05;1.85;;;21.40;93.20;;;;;;5097675;28;20204;-65
2023/06/24 02:11:34;;;;;;;1.63;1.52;;;21.40;93.30;;;;;;5113160;28;20195;-65
2023/06/24 02:14:04;;;;;;;1.90;1.80;;;21.40;93.30;;;;;;5110740;28;20195;-65
2023/06/24 02:16:35;;;;;;;3.03;1.90;;;21.40;93.40;;;;;;5106161;28;20199;-65
2023/06/24 02:19:05;;;;;;;2.10;2.00;;;21.40;93.50;;;;;;5099288;28;20275;-65
2023/06/24 02:21:35;;;;;;;2.22;2.05;;;21.40;93.60;;;;;;5097870;28;20629;-65
2023/06/24 02:24:05;;;;;;;2.30;1.90;;;21.80;93.80;;;;;;5091027;28;20201;-64
2023/06/24 02:26:34;;;;;;;2.50;2.30;;;21.40;93.60;;;;;;5107278;28;20188;-65
2023/06/24 02:29:05;;;;;;;2.67;2.22;;;21.40;93.70;;;;;;5101297;28;20228;-65
2023/06/24 02:31:33;;;;;;;2.15;1.98;;;21.40;93.70;;;;;;5102759;28;20232;-65
2023/06/24 02:34:00;;;;;;;1.75;1.65;;;21.40;93.80;;;;;;5113294;28;20203;-65
2023/06/24 02:36:29;;;;;;;2.45;1.90;;;21.30;93.70;;;;;;5111272;28;20199;-66
2023/06/24 02:38:57;;;;;;;1.67;1.58;;;21.30;93.80;;;;;;5096144;28;20204;-66
2023/06/24 02:41:25;;;;;;;1.90;1.80;;;21.30;93.90;;;;;;5107390;28;20224;-65
2023/06/24 02:43:52;;;;;;;1.45;1.35;;;21.30;93.90;;;;;;5102560;28;20268;-65
2023/06/24 02:46:22;;;;;;;1.75;1.63;;;21.30;94.00;;;;;;5111234;28;20208;-66
2023/06/24 02:48:50;;;;;;;3.70;2.22;;;21.30;94.00;;;;;;5103384;28;20650;-65
2023/06/24 02:51:19;;;;;;;1.50;1.40;;;21.20;94.10;;;;;;5112738;28;20199;-66
2023/06/24 02:53:48;;;;;;;1.63;1.52;;;21.20;94.10;;;;;;5100940;28;20562;-65
2023/06/24 02:56:20;;;;;;;1.30;1.30;;;21.20;94.10;;;;;;5106277;28;20203;-66
2023/06/24 02:58:50;;;;;;;1.70;1.60;;;21.20;94.20;;;;;;5105212;28;20203;-66
2023/06/24 03:01:26;;;;;;;2.35;1.50;;;21.20;94.20;;;;;;5099336;28;20808;-65
2023/06/24 03:03:56;;;;;;;1.65;1.55;;;21.20;94.20;;;;;;5112405;28;20200;-65
2023/06/24 03:06:24;;;;;;;2.10;1.90;;;21.20;94.30;;;;;;5112293;28;20200;-66
2023/06/24 03:08:57;;;;;;;1.98;1.75;;;21.20;94.30;;;;;;5095307;28;20200;-65
2023/06/24 03:11:24;;;;;;;1.77;1.67;;;21.20;94.40;;;;;;5110519;28;20299;-65
2023/06/24 03:13:52;;;;;;;1.55;1.50;;;21.10;94.40;;;;;;5109115;28;20227;-65
2023/06/24 03:16:23;;;;;;;1.38;1.33;;;21.10;94.40;;;;;;5107336;28;20210;-65
2023/06/24 03:18:58;;;;;;;1.60;1.50;;;21.10;94.80;;;;;;5096886;28;20192;-66
2023/06/24 03:21:28;;;;;;;2.13;2.00;;;21.10;94.50;;;;;;5112005;28;20235;-65
2023/06/24 03:24:02;;;;;;;1.40;1.30;;;21.10;94.60;;;;;;5103049;28;20208;-65
2023/06/24 03:26:34;;;;;;;1.20;1.20;;;21.10;94.60;;;;;;5090369;28;20627;-65
2023/06/24 03:29:02;;;;;;;1.58;1.50;;;21.10;94.60;;;;;;5090848;28;20335;-65
2023/06/24 03:31:30;;;;;;;1.20;1.20;;;21.10;95.00;;;;;;5098605;28;20218;-66
2023/06/24 03:33:58;;;;;;;1.50;1.40;;;21.10;94.70;;;;;;5090526;28;20204;-65
2023/06/24 03:36:27;;;;;;;1.73;1.63;;;21.10;94.70;;;;;;5103537;28;20321;-66
2023/06/24 03:38:55;;;;;;;1.50;1.40;;;21.10;94.80;;;;;;5098632;28;20778;-65
2023/06/24 03:41:26;;;;;;;2.17;1.83;;;21.10;94.80;;;;;;5096548;28;20209;-65
2023/06/24 03:43:56;;;;;;;2.05;1.95;;;21.10;94.80;;;;;;5095732;28;20224;-65
2023/06/24 03:46:25;;;;;;;1.50;1.40;;;21.10;94.80;;;;;;5106696;28;20204;-65
2023/06/24 03:48:56;;;;;;;2.05;1.95;;;21.10;94.80;;;;;;5111690;28;20184;-65
2023/06/24 03:51:25;;;;;;;2.13;1.73;;;21.10;94.80;;;;;;5108013;28;20245;-65
2023/06/24 03:53:53;;;;;;;1.50;1.40;;;21.10;94.90;;;;;;5088228;28;20208;-65
2023/06/24 03:56:23;;;;;;;1.58;1.45;;;21.10;94.90;;;;;;5107454;28;20192;-65
2023/06/24 03:58:50;;;;;;;3.42;1.60;;;21.00;94.90;;;;;;5110382;28;20213;-65
2023/06/24 04:01:20;;;;;;;1.42;1.40;;;21.00;95.00;;;;;;5090044;28;20269;-66
2023/06/24 04:03:48;;;;;;;1.60;1.50;;;21.00;95.00;;;;;;5111081;28;20196;-65
2023/06/24 04:06:16;;;;;;;1.50;1.40;;;21.00;95.00;;;;;;5096469;28;20246;-66
2023/06/24 04:08:44;;;;;;;1.70;1.60;;;21.00;95.00;;;;;;5109508;28;20207;-65
2023/06/24 04:11:15;;;;;;;1.50;1.40;;;21.10;95.10;;;;;;5090863;28;20208;-66
2023/06/24 04:13:48;;;;;;;1.45;1.35;;;21.10;95.10;;;;;;5108676;28;20211;-65
2023/06/24 04:16:19;;;;;;;1.85;1.75;;;21.10;95.10;;;;;;5108387;28;20238;-64
2023/06/24 04:18:47;;;;;;;1.90;1.80;;;21.10;95.10;;;;;;5097393;28;20654;-65
2023/06/24 04:21:15;;;;;;;1.83;1.58;;;21.10;95.10;;;;;;5099353;28;20314;-65
2023/06/24 04:23:43;;;;;;;2.10;2.00;;;21.10;95.20;;;;;;5106243;28;20192;-64
2023/06/24 04:26:10;;;;;;;1.75;1.60;;;21.10;95.20;;;;;;5099161;28;20196;-65
2023/06/24 04:28:39;;;;;;;1.60;1.50;;;21.10;95.20;;;;;;5106820;28;20228;-65
2023/06/24 04:31:08;;;;;;;1.55;1.45;;;21.10;95.20;;;;;;5102647;28;20187;-65
2023/06/24 04:33:36;;;;;;;1.17;1.08;;;21.20;95.20;;;;;;5098866;28;20195;-66
2023/06/24 04:36:04;;;;;;;1.15;1.15;;;21.10;95.10;;;;;;5110652;28;20222;-66
2023/06/24 04:38:33;;;;;;;1.40;1.30;;;21.10;95.20;;;;;;5091229;28;20200;-66
2023/06/24 04:41:02;;;;;;;1.50;1.40;;;21.10;95.20;;;;;;5096601;28;20303;-66
2023/06/24 04:43:29;;;;;;;2.97;1.40;;;21.10;95.10;;;;;;5110114;28;20637;-65
2023/06/24 04:45:59;;;;;;;1.23;1.23;;;21.20;95.20;;;;;;5096881;28;20635;-65
2023/06/24 04:48:28;;;;;;;2.72;1.50;;;21.20;95.10;;;;;;5106960;28;20203;-65
2023/06/24 04:50:57;;;;;;;1.70;1.60;;;21.20;95.10;;;;;;5110714;28;20198;-64
2023/06/24 04:53:25;;;;;;;1.33;1.30;;;21.20;95.10;;;;;;5108617;28;20601;-65
2023/06/24 04:55:54;;;;;;;0.93;0.93;;;21.30;95.10;;;;;;5104835;28;20299;-65
2023/06/24 04:58:27;;;;;;;1.50;1.40;;;21.30;95.10;;;;;;5109920;28;20196;-66
2023/06/24 05:00:54;;;;;;;1.48;1.38;;;21.30;95.10;;;;;;5109984;28;20229;-66
2023/06/24 05:03:22;;;;;;;1.15;1.15;;;21.30;95.10;;;;;;5110178;28;20211;-65
2023/06/24 05:05:51;;;;;;;1.00;1.00;;;21.30;95.10;;;;;;5110199;28;20203;-65
2023/06/24 05:08:18;;;;;;;1.60;1.50;;;21.40;95.20;;;;;;5108651;28;20689;-65
2023/06/24 05:10:51;;;;;;;2.55;1.30;;;21.40;95.20;;;;;;5110287;28;20196;-66
2023/06/24 05:13:18;;;;;;;1.15;1.10;;;21.40;95.10;;;;;;5107768;28;20711;-65
2023/06/24 05:15:46;;;;;;;1.30;1.30;;;21.40;95.10;;;;;;5110509;28;20400;-65
2023/06/24 05:18:13;;;;;;;1.55;1.33;;;21.40;95.10;;;;;;5107185;28;20272;-65
2023/06/24 05:20:41;;;;;;;1.73;1.10;;;21.40;95.10;;;;;;5110363;28;20196;-65
2023/06/24 05:23:10;;;;;;;1.25;1.15;;;21.40;95.10;;;;;;5108424;28;20575;-65
2023/06/24 05:25:37;;;;;;;0.95;0.95;;;21.50;95.10;;;;;;5110437;28;20207;-65
2023/06/24 05:28:05;;;;;;;1.20;1.10;;;21.50;95.20;;;;;;5103122;28;20232;-67
2023/06/24 05:30:32;;;;;;;1.30;1.10;;;21.50;95.20;;;;;;5096682;28;20222;-66
2023/06/24 05:33:00;;;;;;;1.27;1.20;;;21.50;95.20;;;;;;5109984;28;20524;-66
2023/06/24 05:35:28;;;;;;;1.27;1.27;;;21.50;95.20;;;;;;5110479;28;20192;-66
2023/06/24 05:37:55;;;;;;;1.05;1.05;;;21.60;95.20;;;;;;5108031;28;20192;-66
2023/06/24 05:40:24;;;;;;;1.23;1.23;;;21.60;95.20;;;;;;5110310;28;20203;-66
2023/06/24 05:42:52;;;;;;;1.60;1.50;;;21.60;95.20;;;;;;5109988;28;20683;-65
2023/06/24 05:45:22;;;;;;;1.98;1.30;;;21.60;95.20;;;;;;5099944;28;20219;-66
2023/06/24 05:47:51;;;;;;;1.35;1.25;;;21.60;95.20;;;;;;5109541;28;20188;-64
2023/06/24 05:50:19;;;;;;;1.60;1.50;;;21.70;95.30;;;;;;5114471;28;20248;-65
2023/06/24 05:52:46;;;;;;;1.60;1.50;;;21.70;95.30;;;;;;5111825;28;20187;-65
2023/06/24 05:55:16;;;;;;;1.10;1.10;;;21.80;95.30;;;;;;5113960;27;20232;-66
2023/06/24 05:57:45;;;;;;;1.88;1.65;;;21.80;95.20;;;;;;5111351;28;20239;-65
2023/06/24 06:00:13;;;;;;;1.10;1.10;;;21.80;95.20;;;;;;5113105;28;20219;-66
2023/06/24 06:02:43;;;;;;;1.00;1.00;;;21.80;95.30;;;;;;5113294;28;20253;-66
2023/06/24 06:05:11;;;;;;;1.20;1.20;;;21.80;95.30;;;;;;5113793;27;20681;-65
2023/06/24 06:07:39;;;;;;;2.17;1.60;;;21.90;95.30;;;;;;5096688;28;20207;-65
2023/06/24 06:10:08;;;;;;;1.67;1.58;;;21.90;95.30;;;;;;5113836;28;20337;-66
2023/06/24 06:12:36;;;;;;;1.98;1.88;;;22.00;95.30;;;;;;5111158;28;20207;-65
2023/06/24 06:15:09;;;;;;;1.58;1.48;;;22.10;95.30;;;;;;5111449;28;20208;-65
2023/06/24 06:17:37;;;;;;;1.80;1.70;;;22.10;95.30;;;;;;5103770;28;20659;-64
2023/06/24 06:20:05;;;;;;;1.90;1.80;;;22.10;95.30;;;;;;5107588;28;20199;-66
2023/06/24 06:22:37;;;;;;;1.50;1.40;;;22.30;95.30;;;;;;5102164;28;20224;-65
2023/06/24 06:25:06;;;;;;;1.95;1.80;;;22.30;95.30;;;;;;5105158;28;20253;-65
2023/06/24 06:27:35;;;;;;;2.45;2.25;;;22.30;95.20;;;;;;5106484;28;20195;-65
2023/06/24 06:30:03;;;;;;;2.20;2.10;;;22.30;95.10;;;;;;5112937;28;20235;-67
2023/06/24 06:32:32;;;;;;;2.53;2.30;;;22.30;95.10;;;;;;5112878;28;20188;-66
2023/06/24 06:34:59;;;;;;;2.60;2.40;;;22.40;95.10;;;;;;5113182;28;20196;-66
2023/06/24 06:37:26;;;;;;;2.20;2.00;;;22.40;95.10;;;;;;5110723;28;20196;-66
2023/06/24 06:39:57;;;;;;;1.92;1.83;;;22.40;95.10;;;;;;5112542;28;20199;-65
2023/06/24 06:42:25;;;;;;;1.52;1.52;;;22.50;95.10;;;;;;5112694;28;20204;-65
2023/06/24 06:44:52;;;;;;;1.90;1.80;;;22.50;95.10;;;;;;5103883;28;20200;-65
2023/06/24 06:47:20;;;;;;;1.52;1.50;;;22.60;95.10;;;;;;5112727;28;20244;-66
2023/06/24 06:49:51;;;;;;;1.85;1.70;;;22.60;95.00;;;;;;5112698;28;20278;-65
2023/06/24 06:52:18;;;;;;;1.40;1.40;;;22.60;94.90;;;;;;5102839;28;20198;-65
2023/06/24 06:54:46;;;;;;;1.67;1.58;;;22.70;94.90;;;;;;5112701;28;20283;-65
2023/06/24 06:57:13;;;;;;;1.67;1.58;;;22.70;94.90;;;;;;5112220;28;20199;-66
2023/06/24 06:59:41;;;;;;;1.52;1.42;;;22.70;94.90;;;;;;5091599;28;20682;-66
2023/06/24 07:02:08;;;;;;;1.30;1.30;;;22.70;94.80;;;;;;5090252;28;20230;-66
2023/06/24 07:04:36;;;;;;;1.10;1.10;;;22.80;94.80;;;;;;5104045;28;20288;-65
2023/06/24 07:07:07;;;;;;;1.20;1.10;;;22.80;94.70;;;;;;5106248;28;20200;-65
2023/06/24 07:09:35;;;;;;;1.17;1.17;;;22.80;94.70;;;;;;5113013;28;20215;-65
2023/06/24 07:12:03;;;;;;;1.35;1.25;;;22.80;94.70;;;;;;5110446;28;20188;-66
2023/06/24 07:14:31;;;;;;;1.30;1.20;;;22.80;94.60;;;;;;5112501;28;20205;-66
2023/06/24 07:16:58;;;;;;;1.08;1.08;;;22.90;94.50;;;;;;5109146;28;20192;-66
2023/06/24 07:19:25;;;;;;;1.20;1.20;;;22.90;94.50;;;;;;5101487;28;20682;-65
2023/06/24 07:21:53;;;;;;;1.20;1.20;;;23.00;94.80;;;;;;5107579;28;20200;-66
2023/06/24 07:24:22;;;;;;;1.42;1.33;;;23.00;94.40;;;;;;5102135;28;20304;-65
2023/06/24 07:26:49;;;;;;;3.70;1.70;;;23.10;94.40;;;;;;5092882;28;20196;-64
2023/06/24 07:29:17;;;;;;;2.60;2.10;;;23.10;94.20;;;;;;5112091;28;20239;-65
2023/06/24 07:31:44;;;;;;;1.85;1.75;;;23.20;94.10;;;;;;5110791;28;20238;-65
2023/06/24 07:34:12;;;;;;;1.70;1.60;;;23.30;94.10;;;;;;5112286;28;20555;-65
2023/06/24 07:36:39;;;;;;;1.63;1.52;;;23.30;94.00;;;;;;5110322;28;20200;-66
2023/06/24 07:39:07;;;;;;;1.73;1.60;;;23.40;93.90;;;;;;5111100;28;20266;-65
2023/06/24 07:41:35;;;;;;;2.17;1.50;;;23.50;93.90;;;;;;5107081;28;20204;-65
2023/06/24 07:44:03;;;;;;;1.60;1.50;;;23.50;93.80;;;;;;5111881;28;20207;-65
2023/06/24 07:46:33;;;;;;;1.45;1.35;;;23.60;93.70;;;;;;5111296;28;20265;-65
2023/06/24 07:49:03;;;;;;;1.05;1.05;;;23.60;93.60;;;;;;5112011;28;20245;-65
2023/06/24 07:51:31;;;;;;;1.50;1.40;;;23.70;93.60;;;;;;5111290;28;20200;-65
2023/06/24 07:53:58;;;;;;;1.40;1.40;;;23.70;93.50;;;;;;5110228;28;20196;-66
2023/06/24 07:56:26;;;;;;;1.70;1.60;;;23.80;93.40;;;;;;5108424;28;20188;-65
2023/06/24 07:58:55;;;;;;;1.75;1.65;;;23.80;93.30;;;;;;5111559;28;20302;-67
2023/06/24 08:01:23;;;;;;;2.15;1.27;;;23.90;93.30;;;;;;5110353;28;20192;-65
2023/06/24 08:03:50;;;;;;;1.40;1.40;;;24.00;93.00;;;;;;5106335;27;20228;-66
2023/06/24 08:06:17;;;;;;;1.40;1.35;;;24.10;92.90;;;;;;5102828;28;20681;-65
2023/06/24 08:08:46;;;;;;;1.20;1.20;;;24.10;92.70;;;;;;5109315;28;20192;-66
2023/06/24 08:11:17;;;;;;;1.95;1.83;;;24.20;92.60;;;;;;5104939;28;20192;-66
2023/06/24 08:13:53;;;;;;;4.72;2.95;;;24.30;92.40;;;;;;5108853;28;20605;-66
2023/06/24 08:16:22;;;;;;;2.80;2.60;;;24.40;90.90;;;;;;5101669;28;20207;-66
2023/06/24 08:18:52;;;;;;;2.35;2.15;;;24.40;90.60;;;;;;5093210;28;20187;-66
2023/06/24 08:21:19;;;;;;;1.60;1.60;;;24.50;91.10;;;;;;5111267;28;20199;-64
2023/06/24 08:23:48;;;;;;;1.70;1.60;;;24.50;90.70;;;;;;5108817;28;20216;-65
2023/06/24 08:26:15;;;;;;;1.70;1.60;;;24.60;90.60;;;;;;5097860;28;20220;-65
2023/06/24 08:28:43;;;;;;;1.30;1.30;;;24.60;90.50;;;;;;5107158;28;20235;-65
2023/06/24 08:31:14;;;;;;;2.60;1.77;;;24.70;90.40;;;;;;5092624;28;20234;-66
2023/06/24 08:33:45;;;;;;;1.70;1.60;;;24.70;90.10;;;;;;5099148;28;20188;-66
2023/06/24 08:36:13;;;;;;;1.50;1.40;;;24.80;89.60;;;;;;5096063;28;20200;-66
2023/06/24 08:38:43;;;;;;;1.33;1.33;;;24.90;89.10;;;;;;5089879;28;20204;-65
2023/06/24 08:41:10;;;;;;;1.10;1.10;;;24.90;88.50;;;;;;5090539;28;20208;-64
2023/06/24 08:43:40;;;;;;;1.30;1.30;;;25.00;88.40;;;;;;5110460;28;20211;-63
2023/06/24 08:46:14;;;;;;;1.80;1.38;;;25.00;88.20;;;;;;5110674;28;20195;-66
2023/06/24 08:48:46;;;;;;;1.38;1.27;;;25.00;87.90;;;;;;5091155;28;20204;-66
2023/06/24 08:51:19;;;;;;;1.20;1.20;;;25.10;87.70;;;;;;5107782;28;20563;-66
2023/06/24 08:53:49;;;;;;;1.88;1.60;;;25.10;87.30;;;;;;5108548;28;20593;-66
2023/06/24 08:56:17;;;;;;;1.35;1.35;;;25.10;86.80;;;;;;5110375;28;20200;-66
2023/06/24 08:58:45;;;;;;;1.48;1.38;;;25.10;86.60;;;;;;5110482;28;20195;-66
2023/06/24 09:01:13;;;;;;;1.30;1.20;;;25.10;86.50;;;;;;5089817;28;20345;-65
2023/06/24 09:03:40;;;;;;;1.50;1.42;;;25.10;86.20;;;;;;5102731;28;20204;-65
2023/06/24 09:06:09;;;;;;;1.38;1.27;;;25.10;86.10;;;;;;5110591;28;20194;-65
2023/06/24 09:08:39;;;;;;;1.48;1.42;;;25.10;85.90;;;;;;5101713;28;20571;-65
2023/06/24 09:11:10;;;;;;;1.73;1.63;;;25.10;85.90;;;;;;5104471;28;20214;-65
2023/06/24 09:13:38;;;;;;;1.30;1.30;;;25.10;85.80;;;;;;5108049;28;20196;-65
2023/06/24 09:16:14;;;;;;;1.58;1.50;;;25.10;85.90;;;;;;5110507;28;20269;-65
2023/06/24 09:18:42;;;;;;;1.17;1.17;;;25.10;86.00;;;;;;5096567;28;20278;-65
2023/06/24 09:21:13;;;;;;;1.10;1.10;;;25.10;86.10;;;;;;5110564;28;20227;-66
2023/06/24 09:23:40;;;;;;;1.30;1.20;;;25.10;86.30;;;;;;5096708;28;20218;-66
2023/06/24 09:26:12;;;;;;;1.27;1.23;;;25.10;86.30;;;;;;5111027;28;20203;-66
2023/06/24 09:28:39;;;;;;;1.40;1.40;;;25.10;86.60;;;;;;5112014;28;20726;-66
2023/06/24 09:31:08;;;;;;;1.90;1.80;;;25.10;86.90;;;;;;5114098;28;20269;-65
2023/06/24 09:33:35;;;;;;;2.08;1.88;;;25.10;87.00;;;;;;5113732;28;20218;-65
2023/06/24 09:36:04;;;;;;;1.80;1.70;;;25.10;86.90;;;;;;5114283;28;20202;-66
2023/06/24 09:38:38;;;;;;;1.52;1.50;;;25.10;86.90;;;;;;5111768;28;20706;-66
2023/06/24 09:41:06;;;;;;;1.30;1.30;;;25.10;86.80;;;;;;5114115;28;20241;-64
2023/06/24 09:43:36;;;;;;;1.60;1.50;;;25.20;86.90;;;;;;5111891;28;20736;-65
2023/06/24 09:46:04;;;;;;;2.92;1.65;;;25.20;86.90;;;;;;5114111;28;20195;-66
2023/06/24 09:48:31;;;;;;;1.50;1.40;;;25.20;86.70;;;;;;5103517;28;20221;-65
2023/06/24 09:51:01;;;;;;;1.70;1.60;;;25.20;86.70;;;;;;5113958;28;20540;-65
2023/06/24 09:53:32;;;;;;;2.17;2.08;;;25.30;86.70;;;;;;5111781;28;20562;-65
2023/06/24 09:56:04;;;;;;;1.67;1.58;;;25.30;86.70;;;;;;5114041;28;20200;-66
2023/06/24 09:58:39;;;;;;;1.60;1.48;;;25.40;86.70;;;;;;5111371;28;20278;-65
2023/06/24 10:01:10;;;;;;;1.65;1.55;;;25.40;86.80;;;;;;5113578;28;20760;-66
2023/06/24 10:03:38;;;;;;;1.40;1.40;;;25.40;86.80;;;;;;5113828;28;20232;-65
2023/06/24 10:06:07;;;;;;;1.85;1.70;;;25.40;86.90;;;;;;5113233;28;20192;-66
2023/06/24 10:08:35;;;;;;;1.58;1.50;;;25.50;87.20;;;;;;5110977;28;20284;-66
2023/06/24 10:11:04;;;;;;;2.97;2.33;;;25.50;87.30;;;;;;5108413;28;20593;-65
2023/06/24 10:13:32;;;;;;;2.88;2.65;;;25.50;87.50;;;;;;5100561;28;20257;-66
2023/06/24 10:16:00;;;;;;;2.47;2.33;;;25.50;88.30;;;;;;5112128;28;20204;-66
2023/06/24 10:18:38;;;;;;;2.45;2.28;;;25.40;89.00;;;;;;5098790;28;20207;-66
2023/06/24 10:21:06;;;;;;;2.35;2.13;;;25.40;89.70;;;;;;5113886;28;20268;-65
2023/06/24 10:23:41;;;;;;;2.88;2.42;;;25.40;90.00;;;;;;5111145;28;20222;-65
2023/06/24 10:26:11;;;;;;;4.35;2.30;;;25.40;90.20;;;;;;5093663;28;20497;-66
2023/06/24 10:29:15;;;;;;;2.20;2.10;;;25.40;90.30;;;;;;5110806;28;20232;-66
2023/06/24 10:31:55;;;;;;;4.40;2.30;;;25.40;90.30;;;;;;5107687;28;20203;-66
2023/06/24 10:34:33;;;;;;;2.08;1.98;;;25.40;90.30;;;;;;5112849;28;20191;-66
2023/06/24 10:37:05;;;;;;;1.92;1.83;;;25.40;90.30;;;;;;5104698;28;20207;-66
2023/06/24 10:39:47;;;;;;;1.60;1.50;;;25.40;90.30;;;;;;5113081;28;20203;-66
2023/06/24 10:42:38;;;;;;;1.80;1.70;;;25.40;90.30;;;;;;5102106;28;20325;-66
2023/06/24 10:45:20;;;;;;;3.03;2.35;;;25.50;90.30;;;;;;5104837;28;20312;-66
2023/06/24 10:47:49;;;;;;;3.30;2.83;;;25.60;90.40;;;;;;5112254;28;20282;-66
2023/06/24 10:50:17;;;;;;;2.03;1.92;;;25.70;90.40;;;;;;5113250;28;20219;-65
2023/06/24 10:52:46;;;;;;;3.20;2.90;;;25.70;90.40;;;;;;5110679;28;20262;-66
2023/06/24 10:55:16;;;;;;;4.90;2.72;;;25.90;90.50;;;;;;5102387;28;20200;-66
2023/06/24 10:57:45;;;;;;;2.40;2.30;;;26.00;90.50;;;;;;5105759;28;20290;-65
2023/06/24 11:00:14;;;;;;;2.25;2.05;;;26.00;90.40;;;;;;5112195;28;20195;-65
2023/06/24 11:02:41;;;;;;;2.60;2.40;;;26.10;90.50;;;;;;5112535;28;20220;-65
2023/06/24 11:05:09;;;;;;;5.72;2.95;;;26.20;90.70;;;;;;5112134;28;20227;-65
2023/06/24 11:07:38;;;;;;;3.25;3.00;;;26.30;90.80;;;;;;5103112;28;20196;-65
2023/06/24 11:10:08;;;;;;;3.55;2.92;;;26.50;90.90;;;;;;5112518;28;20199;-65
2023/06/24 11:12:37;;;;;;;3.22;2.80;;;26.60;91.00;;;;;;5104865;28;20192;-65
2023/06/24 11:15:08;;;;;;;3.10;2.88;;;26.60;90.90;;;;;;5111493;28;20214;-64
2023/06/24 11:17:39;;;;;;;3.47;3.28;;;26.70;91.00;;;;;;5103837;28;20208;-65
2023/06/24 11:20:09;;;;;;;3.55;2.90;;;26.80;91.10;;;;;;5107048;28;20192;-65
2023/06/24 11:22:36;;;;;;;3.72;2.67;;;26.80;91.20;;;;;;5088722;28;20201;-65
2023/06/24 11:25:04;;;;;;;3.50;3.17;;;26.90;91.10;;;;;;5107411;28;20207;-65
2023/06/24 11:27:34;;;;;;;4.10;3.15;;;26.90;91.00;;;;;;5105683;28;20264;-65
2023/06/24 11:30:02;;;;;;;5.57;2.92;;;26.90;91.00;;;;;;5096859;28;20240;-65
2023/06/24 11:32:38;;;;;;;3.90;3.00;;;26.90;90.80;;;;;;5111378;28;20225;-66
2023/06/24 11:35:07;;;;;;;2.92;2.72;;;26.80;90.70;;;;;;5111944;28;20266;-66
2023/06/24 11:37:34;;;;;;;4.10;3.05;;;26.80;90.70;;;;;;5109693;28;20227;-65
2023/06/24 11:40:07;;;;;;;3.00;2.72;;;26.70;90.80;;;;;;5111453;28;20195;-66
2023/06/24 11:42:37;;;;;;;3.63;3.05;;;26.60;90.90;;;;;;5111695;28;20252;-65
2023/06/24 11:45:09;;;;;;;3.67;2.85;;;26.60;90.90;;;;;;5110881;28;20702;-65
2023/06/24 11:47:39;;;;;;;3.35;2.83;;;26.50;91.10;;;;;;5110653;28;20215;-65
2023/06/24 11:50:09;;;;;;;3.42;3.13;;;26.50;91.20;;;;;;5102297;28;20200;-65
2023/06/24 11:52:41;;;;;;;3.22;3.00;;;26.50;91.30;;;;;;5104666;28;20202;-65
2023/06/24 11:55:18;;;;;;;2.75;2.55;;;26.50;91.30;;;;;;5100181;28;20758;-64
2023/06/24 11:57:53;;;;;;;2.33;2.22;;;26.40;91.40;;;;;;5103373;28;20200;-66
2023/06/24 12:00:24;;;;;;;2.85;2.65;;;26.40;91.40;;;;;;5103315;28;20195;-65
2023/06/24 12:02:54;;;;;;;3.33;3.03;;;26.40;91.40;;;;;;5110566;28;20199;-65
2023/06/24 12:05:28;;;;;;;4.28;2.88;;;26.50;91.40;;;;;;5104918;28;20215;-65
2023/06/24 12:07:57;;;;;;;2.88;2.60;;;26.50;91.40;;;;;;5100675;28;20223;-65
2023/06/24 12:10:24;;;;;;;3.25;3.00;;;26.40;91.20;;;;;;5111374;28;20220;-65
2023/06/24 12:12:52;;;;;;;3.05;2.55;;;26.40;91.20;;;;;;5110181;28;20202;-65
2023/06/24 12:15:19;;;;;;;2.10;2.00;;;26.40;91.20;;;;;;5111172;28;20200;-65
2023/06/24 12:17:47;;;;;;;2.08;1.90;;;26.30;91.30;;;;;;5100078;28;20579;-65
2023/06/24 12:20:17;;;;;;;1.92;1.83;;;26.30;91.30;;;;;;5106340;28;20536;-65
2023/06/24 12:22:45;;;;;;;2.67;2.00;;;26.30;91.40;;;;;;5109080;28;20739;-66
2023/06/24 12:25:13;;;;;;;1.48;1.48;;;26.30;91.40;;;;;;5110973;28;20204;-66
2023/06/24 12:27:41;;;;;;;1.45;1.40;;;26.30;91.40;;;;;;5104072;28;20195;-64
2023/06/24 12:30:09;;;;;;;1.70;1.60;;;26.30;91.40;;;;;;5094561;28;20676;-65
2023/06/24 12:32:40;;;;;;;1.27;1.25;;;26.30;91.40;;;;;;5108619;28;20200;-65
2023/06/24 12:35:09;;;;;;;1.70;1.60;;;26.30;91.40;;;;;;5111157;28;20188;-65
2023/06/24 12:37:38;;;;;;;1.90;1.80;;;26.30;91.50;;;;;;5108937;28;20544;-65
2023/06/24 12:40:06;;;;;;;1.70;1.60;;;26.30;91.50;;;;;;5110827;28;20205;-65
2023/06/24 12:42:34;;;;;;;2.15;1.92;;;26.30;91.60;;;;;;5110424;28;20211;-65
2023/06/24 12:45:02;;;;;;;2.63;2.42;;;26.20;91.60;;;;;;5108832;28;20207;-65
2023/06/24 12:47:29;;;;;;;2.58;2.25;;;26.20;91.50;;;;;;5109044;28;20207;-65
2023/06/24 12:49:57;;;;;;;1.98;1.88;;;26.20;91.40;;;;;;5096218;28;20304;-65
2023/06/24 12:52:24;;;;;;;1.77;1.67;;;26.10;91.40;;;;;;5108584;28;20210;-65
2023/06/24 12:54:59;;;;;;;2.53;2.33;;;26.10;91.40;;;;;;5095881;28;20205;-66
2023/06/24 12:57:28;;;;;;;2.95;2.58;;;26.10;91.40;;;;;;5106234;28;20213;-66
2023/06/24 12:59:55;;;;;;;2.90;2.70;;;26.00;91.30;;;;;;5106604;28;20207;-65